Time;durP1;ratioP1;P1;durP2;ratioP2;P2;SDS_P1;SDS_P2;PMS_P1;PMS_P2;Temp;Humidity;BMP_temperature;BMP_pressure;BME280_temperature;BME280_humidity;BME280_pressure;Samples;Min_cycle;Max_cycle;Signal;HPM_P1;HPM_P2
2022/07/04 00:02:18;;;;;;;6.60;1.70;;;;;;;25.39;44.83;97609.53;5059070;28;20187;-74
2022/07/04 00:04:43;;;;;;;3.03;1.70;;;;;;;25.38;45.20;97611.41;5058179;28;20182;-73
2022/07/04 00:07:09;;;;;;;1.40;1.30;;;;;;;25.42;45.12;97614.44;5057072;28;20508;-74
2022/07/04 00:09:34;;;;;;;1.70;1.40;;;;;;;25.43;45.07;97613.41;5059465;28;20182;-74
2022/07/04 00:12:00;;;;;;;3.10;1.63;;;;;;;25.47;44.81;97608.38;5057421;28;20190;-74
2022/07/04 00:14:27;;;;;;;2.40;1.60;;;;;;;25.49;44.87;97604.38;5060407;28;20194;-74
2022/07/04 00:16:53;;;;;;;2.73;1.60;;;;;;;25.48;44.82;97600.06;5057527;28;20429;-74
2022/07/04 00:19:18;;;;;;;1.90;1.50;;;;;;;25.49;45.05;97604.38;5057396;28;20554;-74
2022/07/04 00:21:44;;;;;;;10.67;1.63;;;;;;;25.49;44.68;97601.69;5059740;28;20653;-74
2022/07/04 00:24:09;;;;;;;3.30;1.80;;;;;;;25.51;44.56;97599.59;5056423;28;20225;-75
2022/07/04 00:26:35;;;;;;;2.40;1.63;;;;;;;25.50;44.34;97589.13;5058743;28;20183;-73
2022/07/04 00:29:00;;;;;;;2.80;1.40;;;;;;;25.52;44.65;97601.22;5055641;28;20649;-73
2022/07/04 00:31:26;;;;;;;1.37;1.27;;;;;;;25.50;43.90;97597.97;5060963;28;20179;-74
2022/07/04 00:33:51;;;;;;;3.60;1.70;;;;;;;25.54;43.78;97599.13;5055648;28;20704;-73
2022/07/04 00:36:17;;;;;;;4.33;1.40;;;;;;;25.55;43.50;97598.06;5062096;28;20182;-72
2022/07/04 00:38:42;;;;;;;2.40;1.70;;;;;;;25.54;43.46;97604.50;5056865;28;20293;-74
2022/07/04 00:41:08;;;;;;;2.60;1.27;;;;;;;25.54;43.84;97609.84;5058028;28;20206;-74
2022/07/04 00:43:33;;;;;;;1.40;1.23;;;;;;;25.50;43.57;97607.91;5060859;28;20210;-72
2022/07/04 00:46:03;;;;;;;2.80;1.63;;;;;;;25.49;43.53;97608.94;5057632;28;20179;-75
2022/07/04 00:48:29;;;;;;;2.17;1.37;;;;;;;25.50;43.66;97613.25;5055965;28;20550;-75
2022/07/04 00:50:54;;;;;;;4.03;1.43;;;;;;;25.51;43.73;97615.69;5057112;28;20509;-74
2022/07/04 00:53:22;;;;;;;2.70;1.40;;;;;;;25.48;43.43;97610.81;5059497;28;20293;-73
2022/07/04 00:55:50;;;;;;;2.40;1.30;;;;;;;25.48;43.60;97610.81;5055035;28;20191;-74
2022/07/04 00:58:16;;;;;;;3.33;1.50;;;;;;;25.50;43.17;97614.06;5057256;28;20450;-74
2022/07/04 01:00:41;;;;;;;3.70;1.67;;;;;;;25.48;43.54;97608.13;5053387;28;20883;-74
2022/07/04 01:03:07;;;;;;;3.10;1.50;;;;;;;25.49;43.49;97606.28;5058674;28;20457;-74
2022/07/04 01:05:32;;;;;;;2.23;1.30;;;;;;;25.53;43.04;97615.44;5062805;28;20275;-74
2022/07/04 01:07:58;;;;;;;3.23;1.20;;;;;;;25.52;43.30;97611.97;5052927;28;20198;-74
2022/07/04 01:10:24;;;;;;;2.23;1.30;;;;;;;25.51;43.45;97610.34;5065046;28;20226;-75
2022/07/04 01:12:49;;;;;;;2.33;1.70;;;;;;;25.50;43.24;97603.34;5056700;28;20302;-74
2022/07/04 01:15:14;;;;;;;2.30;1.77;;;;;;;25.52;43.65;97614.66;5064172;28;20187;-74
2022/07/04 01:17:40;;;;;;;2.60;1.70;;;;;;;25.49;43.04;97607.06;5058935;28;20262;-74
2022/07/04 01:20:10;;;;;;;4.13;1.67;;;;;;;25.51;43.00;97612.22;5058378;28;20201;-73
2022/07/04 01:22:36;;;;;;;3.00;1.63;;;;;;;25.43;43.09;97608.84;5063480;28;20225;-75
2022/07/04 01:25:03;;;;;;;3.23;1.20;;;;;;;25.44;43.36;97605.09;5052183;28;20461;-73
2022/07/04 01:27:28;;;;;;;1.40;1.30;;;;;;;25.45;43.33;97597.88;5059639;28;20634;-75
2022/07/04 01:29:53;;;;;;;2.90;1.50;;;;;;;25.43;43.13;97602.66;5063779;28;20440;-75
2022/07/04 01:32:19;;;;;;;3.00;1.70;;;;;;;25.38;43.01;97608.72;5072213;28;20194;-76
2022/07/04 01:34:45;;;;;;;3.03;1.30;;;;;;;25.38;43.23;97615.94;5071624;28;20289;-76
2022/07/04 01:37:11;;;;;;;1.83;1.60;;;;;;;25.36;43.01;97615.34;5072666;28;20186;-75
2022/07/04 01:39:36;;;;;;;1.70;1.40;;;;;;;25.30;43.19;97617.97;5071681;28;20269;-75
2022/07/04 01:42:03;;;;;;;1.50;1.40;;;;;;;25.27;43.53;97614.91;5078854;28;20308;-75
2022/07/04 01:44:28;;;;;;;1.47;1.37;;;;;;;25.32;43.03;97616.91;5068947;28;20189;-76
2022/07/04 01:46:54;;;;;;;2.33;1.70;;;;;;;25.28;42.99;97622.75;5071089;28;20436;-75
2022/07/04 01:49:20;;;;;;;4.27;1.50;;;;;;;25.23;43.11;97625.31;5069727;28;20200;-75
2022/07/04 01:51:46;;;;;;;2.90;1.60;;;;;;;25.20;43.74;97625.81;5071196;28;20174;-74
2022/07/04 01:54:12;;;;;;;3.97;1.60;;;;;;;25.26;43.03;97630.19;5069108;28;20206;-75
2022/07/04 01:56:41;;;;;;;2.07;1.40;;;;;;;25.26;43.05;97630.19;5070816;28;20512;-75
2022/07/04 01:59:07;;;;;;;3.40;2.00;;;;;;;25.20;43.24;97631.16;5071425;28;20186;-74
2022/07/04 02:01:33;;;;;;;2.80;1.80;;;;;;;25.20;43.06;97631.16;5069596;28;20457;-75
2022/07/04 02:04:01;;;;;;;2.10;1.60;;;;;;;25.14;43.66;97632.91;5071036;28;20489;-75
2022/07/04 02:06:27;;;;;;;4.13;1.60;;;;;;;25.09;43.57;97638.16;5070308;28;20439;-75
2022/07/04 02:14:21;;;;;;;4.10;2.37;;;;;;;25.06;43.39;97641.31;5070661;28;20484;-73
2022/07/04 02:16:46;;;;;;;3.00;1.43;;;;;;;25.02;43.51;97631.31;5070128;28;20439;-74
2022/07/04 02:19:11;;;;;;;1.50;1.40;;;;;;;25.02;43.69;97640.16;5070328;28;20183;-75
2022/07/04 02:21:37;;;;;;;4.00;1.60;;;;;;;25.00;44.01;97637.72;5070582;28;20297;-74
2022/07/04 02:24:03;;;;;;;4.10;1.47;;;;;;;24.99;43.90;97637.97;5066951;28;20233;-75
2022/07/04 02:26:28;;;;;;;2.80;1.50;;;;;;;25.02;43.61;97642.03;5062881;28;20554;-75
2022/07/04 02:28:54;;;;;;;2.50;1.37;;;;;;;24.97;43.99;97645.41;5069669;28;20183;-73
2022/07/04 02:31:19;;;;;;;2.30;1.53;;;;;;;24.89;44.00;97646.59;5073310;28;20265;-75
2022/07/04 02:33:45;;;;;;;3.80;1.70;;;;;;;24.92;44.38;97651.47;5070736;28;20210;-74
2022/07/04 02:36:10;;;;;;;2.53;1.30;;;;;;;24.89;44.17;97657.31;5072450;28;20187;-74
2022/07/04 02:38:36;;;;;;;3.50;1.67;;;;;;;24.89;44.23;97659.19;5052550;28;20653;-75
2022/07/04 02:41:01;;;;;;;13.27;1.70;;;;;;;24.83;44.08;97664.41;5069426;28;20665;-75
2022/07/04 02:43:26;;;;;;;1.60;1.40;;;;;;;24.85;44.35;97669.53;5073900;28;20211;-74
2022/07/04 02:45:52;;;;;;;3.67;1.40;;;;;;;24.81;44.40;97673.75;5052206;28;20185;-75
2022/07/04 02:48:17;;;;;;;3.23;1.77;;;;;;;24.82;44.41;97678.06;5062733;28;20551;-74
2022/07/04 02:50:43;;;;;;;4.17;1.50;;;;;;;24.79;44.19;97673.16;5070580;28;20257;-73
2022/07/04 02:53:08;;;;;;;4.97;1.53;;;;;;;24.80;44.30;97677.47;5066932;28;20213;-74
2022/07/04 02:55:34;;;;;;;5.33;1.40;;;;;;;24.77;44.12;97685.97;5070476;28;20186;-74
2022/07/04 02:57:59;;;;;;;3.90;1.67;;;;;;;24.74;44.53;97681.06;5070251;28;20190;-74
2022/07/04 03:00:25;;;;;;;2.80;1.67;;;;;;;24.72;44.74;97688.53;5067302;28;20239;-74
2022/07/04 03:02:50;;;;;;;2.53;1.67;;;;;;;24.67;44.78;97690.03;5065439;28;20280;-74
2022/07/04 03:05:16;;;;;;;3.70;1.40;;;;;;;24.62;44.72;97692.56;5070015;28;20213;-75
2022/07/04 03:07:41;;;;;;;1.80;1.50;;;;;;;24.63;44.79;97688.84;5070048;28;20553;-75
2022/07/04 03:10:07;;;;;;;1.60;1.50;;;;;;;24.56;45.01;97698.88;5070118;28;20190;-75
2022/07/04 03:12:33;;;;;;;4.50;1.80;;;;;;;24.51;45.13;97688.00;5070086;28;20202;-75
2022/07/04 03:14:59;;;;;;;2.00;1.90;;;;;;;24.51;44.96;97694.16;5070171;28;20270;-74
2022/07/04 03:17:25;;;;;;;4.73;4.07;;;;;;;24.50;44.76;97689.06;5067835;28;20206;-75
2022/07/04 03:19:51;;;;;;;2.60;2.13;;;;;;;24.41;45.17;97693.94;5067419;28;20592;-74
2022/07/04 03:22:16;;;;;;;2.27;1.80;;;;;;;24.44;45.22;97692.66;5069696;28;20613;-75
2022/07/04 03:24:42;;;;;;;5.70;2.30;;;;;;;24.43;45.44;97691.03;5023224;28;20328;-74
2022/07/04 03:27:07;;;;;;;2.50;1.83;;;;;;;24.42;45.13;97694.75;5072380;28;20638;-75
2022/07/04 03:29:33;;;;;;;2.07;1.70;;;;;;;24.39;45.25;97702.19;5073835;28;20178;-75
2022/07/04 03:31:59;;;;;;;8.10;2.80;;;;;;;24.33;45.42;97695.06;5078345;28;20191;-75
2022/07/04 03:34:24;;;;;;;7.30;2.07;;;;;;;24.32;45.40;97698.78;5069449;28;20218;-74
2022/07/04 03:36:50;;;;;;;7.63;2.40;;;;;;;24.27;45.44;97704.03;5068850;28;20210;-75
2022/07/04 03:39:15;;;;;;;8.53;2.00;;;;;;;24.24;45.30;97701.81;5073316;28;20277;-75
2022/07/04 03:41:41;;;;;;;3.00;1.90;;;;;;;24.21;45.81;97700.41;5067100;28;20301;-75
2022/07/04 03:44:06;;;;;;;4.07;1.70;;;;;;;24.21;45.66;97705.75;5071479;28;20212;-75
2022/07/04 03:46:32;;;;;;;4.10;1.70;;;;;;;24.18;45.95;97705.41;5030006;28;20216;-75
2022/07/04 03:48:57;;;;;;;9.13;2.83;;;;;;;24.16;46.06;97710.19;5048738;28;20322;-75
2022/07/04 03:51:23;;;;;;;3.37;2.30;;;;;;;24.15;46.09;97720.06;5063647;28;20653;-74
2022/07/04 03:53:48;;;;;;;2.47;1.70;;;;;;;24.09;46.04;97712.94;5056241;28;20243;-75
2022/07/04 03:56:14;;;;;;;2.27;1.77;;;;;;;24.04;46.29;97721.66;5090510;28;20204;-75
2022/07/04 03:58:42;;;;;;;9.10;2.00;;;;;;;24.02;46.01;97723.75;5082255;28;20182;-75
2022/07/04 04:01:08;;;;;;;4.30;1.77;;;;;;;24.05;46.23;97723.28;5080822;28;20691;-75
2022/07/04 04:06:18;;;;;;;2.83;2.00;;;;;;;24.08;45.88;97728.19;5090529;28;20430;-75
2022/07/04 04:08:44;;;;;;;3.43;1.73;;;;;;;24.06;45.49;97730.28;5086322;28;20433;-75
2022/07/04 04:11:09;;;;;;;6.60;1.80;;;;;;;24.02;45.53;97733.63;5070066;28;20646;-74
2022/07/04 04:13:35;;;;;;;6.70;2.00;;;;;;;24.05;45.74;97739.34;5072382;28;20197;-74
2022/07/04 04:16:00;;;;;;;7.27;1.70;;;;;;;24.04;45.43;97745.75;5082282;28;20182;-74
2022/07/04 04:18:26;;;;;;;2.33;1.67;;;;;;;24.01;45.91;97743.53;5084295;28;20259;-75
2022/07/04 04:20:52;;;;;;;2.27;1.53;;;;;;;24.00;45.78;97752.59;5082533;28;20233;-74
2022/07/04 04:23:17;;;;;;;2.20;1.80;;;;;;;24.03;45.84;97751.31;5089224;28;20210;-74
2022/07/04 04:25:43;;;;;;;2.23;1.70;;;;;;;24.02;45.53;97758.53;5086684;28;20198;-73
2022/07/04 04:28:08;;;;;;;8.50;2.07;;;;;;;24.00;45.86;97763.28;5083928;28;20186;-75
2022/07/04 04:30:34;;;;;;;3.57;1.73;;;;;;;24.01;46.15;97772.97;5078152;28;20197;-75
2022/07/04 04:33:00;;;;;;;3.13;1.90;;;;;;;23.99;45.81;97777.72;5081885;28;20221;-76
2022/07/04 04:35:25;;;;;;;10.83;1.80;;;;;;;23.97;45.81;97771.78;5088091;28;20268;-76
2022/07/04 04:37:51;;;;;;;6.50;2.23;;;;;;;23.92;45.88;97777.78;5074287;28;20232;-76
2022/07/04 04:40:16;;;;;;;5.23;1.60;;;;;;;23.87;46.02;97779.50;5088611;28;20215;-74
2022/07/04 04:42:42;;;;;;;3.93;1.60;;;;;;;23.82;46.33;97784.72;5075837;28;20202;-76
2022/07/04 04:45:08;;;;;;;7.33;2.20;;;;;;;23.79;46.00;97793.97;5082975;28;20194;-74
2022/07/04 04:47:34;;;;;;;3.80;1.47;;;;;;;23.69;46.28;97791.00;5083913;28;20185;-76
2022/07/04 04:50:00;;;;;;;1.93;1.70;;;;;;;23.71;46.44;97789.75;5080544;28;20277;-76
2022/07/04 04:52:26;;;;;;;3.60;1.70;;;;;;;23.77;46.48;97799.56;5078690;28;20177;-75
2022/07/04 04:54:51;;;;;;;6.90;2.17;;;;;;;23.78;46.29;97803.88;5084472;28;20436;-75
2022/07/04 04:57:17;;;;;;;3.10;1.90;;;;;;;23.77;46.46;97801.41;5083993;28;20802;-74
2022/07/04 04:59:42;;;;;;;1.93;1.73;;;;;;;23.80;46.16;97797.50;5075721;28;20190;-75
2022/07/04 05:02:08;;;;;;;9.37;2.00;;;;;;;23.80;46.47;97792.13;5085720;28;20214;-75
2022/07/04 05:04:33;;;;;;;6.47;1.90;;;;;;;23.86;46.29;97794.75;5076289;28;20576;-74
2022/07/04 05:06:59;;;;;;;2.77;1.57;;;;;;;23.91;45.98;97802.09;5073693;28;20183;-75
2022/07/04 05:09:25;;;;;;;5.17;2.03;;;;;;;23.95;46.31;97797.91;5065346;28;20213;-75
2022/07/04 05:11:50;;;;;;;3.53;1.83;;;;;;;23.95;46.09;97797.91;5072036;28;20642;-75
2022/07/04 05:14:16;;;;;;;2.90;1.80;;;;;;;23.91;46.24;97796.75;5061688;28;20203;-76
2022/07/04 05:16:42;;;;;;;5.10;1.90;;;;;;;23.93;46.71;97794.66;5059653;28;20550;-76
2022/07/04 05:19:07;;;;;;;3.50;1.60;;;;;;;23.94;46.59;97798.97;5064808;28;20178;-75
2022/07/04 05:21:33;;;;;;;2.00;1.80;;;;;;;23.92;46.20;97798.38;5061514;28;20669;-75
2022/07/04 05:23:58;;;;;;;4.00;1.53;;;;;;;23.89;47.06;97793.47;5066796;28;20306;-73
2022/07/04 05:26:24;;;;;;;2.83;1.63;;;;;;;23.86;46.77;97791.22;5062047;28;20223;-74
2022/07/04 05:28:49;;;;;;;3.23;1.63;;;;;;;23.89;46.82;97793.47;5075676;28;20190;-74
2022/07/04 05:31:15;;;;;;;4.77;2.00;;;;;;;23.87;46.37;97798.22;5074028;28;20182;-73
2022/07/04 05:33:41;;;;;;;7.83;2.20;;;;;;;23.86;46.76;97788.56;5076489;28;20243;-75
2022/07/04 05:36:07;;;;;;;6.40;2.03;;;;;;;23.89;46.44;97788.13;5070695;28;20179;-74
2022/07/04 05:38:32;;;;;;;3.70;1.90;;;;;;;23.95;46.81;97787.19;5074728;28;20178;-74
2022/07/04 05:40:58;;;;;;;2.70;1.70;;;;;;;23.96;46.61;97788.06;5063980;28;20201;-73
2022/07/04 05:43:25;;;;;;;6.27;1.90;;;;;;;24.05;46.34;97790.22;5056784;28;20199;-75
2022/07/04 05:45:51;;;;;;;2.03;1.60;;;;;;;24.11;46.41;97791.19;5066414;28;20185;-74
2022/07/04 05:48:16;;;;;;;7.30;1.60;;;;;;;24.20;46.49;97786.31;5056893;28;20428;-74
2022/07/04 05:50:42;;;;;;;3.60;1.83;;;;;;;24.33;46.25;97788.81;5066180;28;20417;-73
2022/07/04 05:53:08;;;;;;;2.40;1.40;;;;;;;24.44;45.14;97786.41;5066566;28;20259;-73
2022/07/04 05:55:34;;;;;;;4.23;1.83;;;;;;;24.36;45.26;97780.31;5078230;28;20213;-74
2022/07/04 05:58:00;;;;;;;3.67;1.70;;;;;;;24.42;45.12;97781.28;5072933;28;20568;-74
2022/07/04 06:00:25;;;;;;;2.57;1.70;;;;;;;24.50;45.56;97774.78;5069452;28;20460;-74
2022/07/04 06:02:51;;;;;;;3.53;1.27;;;;;;;24.61;45.64;97779.34;5070701;28;20745;-74
2022/07/04 06:05:16;;;;;;;3.67;1.60;;;;;;;24.73;45.24;97778.59;5068886;28;20182;-74
2022/07/04 06:07:42;;;;;;;2.73;1.50;;;;;;;24.79;44.29;97772.31;5065501;28;20214;-74
2022/07/04 06:10:08;;;;;;;3.83;1.60;;;;;;;24.86;44.06;97767.66;5052969;28;20205;-74
2022/07/04 06:12:34;;;;;;;7.50;1.40;;;;;;;24.81;44.32;97767.56;5058660;28;20214;-74
2022/07/04 06:14:59;;;;;;;3.10;1.73;;;;;;;24.81;44.27;97775.59;5053552;28;20429;-73
2022/07/04 06:17:25;;;;;;;4.80;1.90;;;;;;;24.80;44.45;97776.63;5055597;28;20274;-75
2022/07/04 06:19:50;;;;;;;4.37;1.67;;;;;;;24.79;44.43;97781.16;5064621;28;20645;-74
2022/07/04 06:22:16;;;;;;;2.60;1.70;;;;;;;24.82;44.39;97780.72;5056609;28;20229;-74
2022/07/04 06:24:41;;;;;;;6.93;2.43;;;;;;;24.86;44.41;97781.06;5071359;28;20560;-74
2022/07/04 06:27:07;;;;;;;4.37;1.40;;;;;;;24.92;44.55;97784.69;5055417;28;20193;-74
2022/07/04 06:29:32;;;;;;;5.33;1.60;;;;;;;24.94;43.99;97786.09;5067913;28;20271;-74
2022/07/04 06:31:58;;;;;;;4.97;1.63;;;;;;;24.93;44.13;97786.31;5059902;28;20190;-73
2022/07/04 06:37:07;;;;;;;4.60;1.60;;;;;;;25.18;44.27;97793.31;5058803;28;20561;-74
2022/07/04 06:39:33;;;;;;;4.30;1.60;;;;;;;25.30;44.13;97791.47;5057071;28;20429;-74
2022/07/04 06:41:58;;;;;;;4.37;2.00;;;;;;;25.38;43.60;97784.94;5067536;28;20226;-73
2022/07/04 06:44:24;;;;;;;4.23;1.50;;;;;;;25.44;43.40;97790.22;5057604;28;20202;-73
2022/07/04 06:46:50;;;;;;;6.40;1.57;;;;;;;25.51;43.04;97794.66;5067074;28;20186;-73
2022/07/04 06:49:16;;;;;;;4.00;1.70;;;;;;;25.61;42.86;97797.53;5057668;28;20175;-74
2022/07/04 06:51:42;;;;;;;3.23;1.43;;;;;;;25.64;43.47;97794.41;5053811;28;20919;-74
2022/07/04 06:54:07;;;;;;;2.93;1.80;;;;;;;25.63;43.53;97800.00;5068555;28;20217;-73
2022/07/04 06:56:33;;;;;;;2.47;1.70;;;;;;;25.69;43.48;97799.88;5070015;28;20178;-74
2022/07/04 06:58:59;;;;;;;3.57;1.50;;;;;;;25.74;43.36;97791.09;5071142;28;20190;-74
2022/07/04 07:01:24;;;;;;;4.43;1.60;;;;;;;25.72;43.11;97794.03;5070251;28;20242;-74
2022/07/04 07:03:50;;;;;;;10.53;1.67;;;;;;;25.73;42.60;97781.41;5070421;28;21013;-73
2022/07/04 07:06:15;;;;;;;2.40;1.40;;;;;;;25.69;42.83;97781.06;5064913;28;20281;-72
2022/07/04 07:08:41;;;;;;;1.30;1.20;;;;;;;25.69;42.81;97785.63;5066342;28;20183;-74
2022/07/04 07:11:12;;;;;;;5.60;1.50;;;;;;;25.74;42.59;97780.38;5067051;28;20211;-73
2022/07/04 07:13:45;;;;;;;8.27;1.60;;;;;;;25.72;42.47;97766.34;5070089;28;20714;-74
2022/07/04 07:16:11;;;;;;;1.80;1.50;;;;;;;25.78;42.62;97781.53;5067507;28;20944;-73
2022/07/04 07:18:36;;;;;;;2.13;1.50;;;;;;;25.82;42.75;97771.97;5070080;28;20514;-74
2022/07/04 07:21:02;;;;;;;4.27;1.70;;;;;;;25.87;42.78;97764.00;5069946;28;20464;-74
2022/07/04 07:23:28;;;;;;;2.83;1.70;;;;;;;25.94;42.75;97763.84;5069634;28;20205;-73
2022/07/04 07:25:53;;;;;;;2.93;1.40;;;;;;;26.04;42.56;97755.19;5070144;28;20794;-73
2022/07/04 07:28:19;;;;;;;2.83;1.70;;;;;;;26.02;42.13;97760.78;5070118;28;20198;-74
2022/07/04 07:30:44;;;;;;;3.43;1.53;;;;;;;26.03;41.99;97751.69;5074455;28;20547;-74
2022/07/04 07:33:11;;;;;;;2.80;1.50;;;;;;;26.07;42.44;97758.22;5069450;28;20615;-73
2022/07/04 07:35:36;;;;;;;4.27;1.70;;;;;;;26.12;42.83;97757.50;5070598;28;20186;-74
2022/07/04 07:38:02;;;;;;;2.10;1.63;;;;;;;26.14;42.32;97758.09;5069615;28;20424;-73
2022/07/04 07:40:27;;;;;;;1.87;1.57;;;;;;;26.19;42.51;97754.69;5069966;28;20203;-74
2022/07/04 07:42:54;;;;;;;3.87;1.60;;;;;;;26.21;41.62;97753.38;5077497;28;20221;-73
2022/07/04 07:45:20;;;;;;;3.70;1.77;;;;;;;26.17;41.61;97746.88;5070282;28;20641;-74
2022/07/04 07:47:46;;;;;;;3.87;1.60;;;;;;;26.20;41.81;97746.41;5070104;28;20452;-74
2022/07/04 07:50:12;;;;;;;4.27;1.70;;;;;;;26.21;41.94;97753.38;5062470;28;20468;-74
2022/07/04 07:52:37;;;;;;;5.50;1.80;;;;;;;26.23;41.98;97758.53;5068716;28;20547;-74
2022/07/04 07:55:03;;;;;;;3.63;1.83;;;;;;;26.25;41.94;97752.91;5069611;28;20241;-71
2022/07/04 07:57:29;;;;;;;2.50;1.60;;;;;;;26.25;41.91;97767.16;5072408;28;20197;-74
2022/07/04 07:59:55;;;;;;;4.33;1.30;;;;;;;26.26;41.87;97763.44;5074639;28;20523;-74
2022/07/04 08:04:33;;;;;;;5.70;1.90;;;;;;;26.28;42.35;97752.44;5071998;28;20210;-74
2022/07/04 08:05:07;;;;;;;2.13;1.67;;;;;;;26.35;41.85;97755.78;5072417;28;20186;-74
2022/07/04 08:07:32;;;;;;;1.73;1.47;;;;;;;26.40;42.01;97755.88;5072414;28;20440;-74
2022/07/04 08:09:58;;;;;;;3.73;1.47;;;;;;;26.44;41.79;97757.03;5073246;28;20429;-74
2022/07/04 08:12:23;;;;;;;5.30;1.90;;;;;;;26.37;41.66;97756.34;5077727;28;20182;-74
2022/07/04 08:14:49;;;;;;;3.10;1.60;;;;;;;26.32;41.87;97758.97;5073355;28;20595;-74
2022/07/04 08:17:14;;;;;;;2.07;1.70;;;;;;;26.39;41.96;97753.44;5072635;28;20193;-73
2022/07/04 08:19:39;;;;;;;3.67;1.77;;;;;;;26.37;41.78;97749.13;5073315;28;20178;-75
2022/07/04 08:22:05;;;;;;;5.07;2.17;;;;;;;26.38;41.80;97752.63;5073325;28;20681;-74
2022/07/04 08:24:30;;;;;;;5.70;1.63;;;;;;;26.36;41.64;97747.50;5071693;28;20251;-74
2022/07/04 08:26:56;;;;;;;3.40;1.60;;;;;;;26.40;42.29;97742.44;5072751;28;20185;-74
2022/07/04 08:29:21;;;;;;;1.60;1.50;;;;;;;26.40;41.94;97750.50;5067251;28;20186;-74
2022/07/04 08:31:47;;;;;;;1.70;1.60;;;;;;;26.41;41.91;97749.44;5068519;28;20648;-74
2022/07/04 08:34:13;;;;;;;2.57;1.90;;;;;;;26.48;41.56;97752.78;5070268;28;20248;-74
2022/07/04 08:36:38;;;;;;;3.93;1.90;;;;;;;26.48;41.34;97746.59;5074419;28;20190;-73
2022/07/04 08:39:04;;;;;;;3.93;1.77;;;;;;;26.47;41.34;97751.16;5071093;28;20269;-73
2022/07/04 08:41:35;;;;;;;3.57;1.57;;;;;;;26.46;41.84;97740.66;5075720;28;20668;-74
2022/07/04 08:44:01;;;;;;;4.67;2.00;;;;;;;26.55;41.67;97736.50;5075434;28;20198;-74
2022/07/04 08:46:27;;;;;;;3.80;1.70;;;;;;;26.71;41.18;97742.97;5066270;28;20471;-74
2022/07/04 08:48:55;;;;;;;3.77;1.97;;;;;;;26.71;41.27;97740.28;5072928;28;20232;-73
2022/07/04 08:51:32;;;;;;;4.13;1.60;;;;;;;26.68;41.63;97748.84;5070909;28;20413;-72
2022/07/04 08:53:57;;;;;;;1.90;1.43;;;;;;;26.74;42.00;97741.66;5071894;28;20543;-74
2022/07/04 08:59:07;;;;;;;4.60;1.73;;;;;;;26.74;42.19;97745.16;5076875;28;20182;-74
2022/07/04 09:01:33;;;;;;;4.57;1.77;;;;;;;26.82;41.84;97750.16;5066391;28;20510;-74
2022/07/04 09:04:00;;;;;;;3.63;1.57;;;;;;;26.86;41.47;97757.72;5070498;28;20222;-75
2022/07/04 09:06:27;;;;;;;2.83;1.50;;;;;;;26.94;40.58;97750.06;5071596;28;20225;-74
2022/07/04 09:08:53;;;;;;;4.30;2.00;;;;;;;26.96;40.62;97769.47;5056717;28;20433;-73
2022/07/04 09:11:18;;;;;;;2.07;1.83;;;;;;;26.95;41.17;97767.03;5054969;28;20471;-73
2022/07/04 09:13:44;;;;;;;2.90;1.80;;;;;;;26.93;41.38;97769.16;5055421;28;20199;-74
2022/07/04 09:16:09;;;;;;;4.67;2.10;;;;;;;26.87;41.21;97768.25;5061714;28;20186;-73
2022/07/04 09:18:36;;;;;;;4.70;1.80;;;;;;;26.96;40.95;97769.47;5056212;28;20270;-74
2022/07/04 09:21:06;;;;;;;8.03;1.50;;;;;;;27.08;40.33;97766.69;5056085;28;20214;-73
2022/07/04 09:23:34;;;;;;;3.73;1.73;;;;;;;27.18;40.50;97771.41;5056897;28;20446;-73
2022/07/04 09:26:14;;;;;;;7.90;3.20;;;;;;;27.39;40.31;97772.50;5057258;28;20429;-74
2022/07/04 09:28:50;;;;;;;3.20;2.00;;;;;;;27.67;39.85;97773.44;5057542;28;20424;-74
2022/07/04 09:31:19;;;;;;;6.60;2.40;;;;;;;27.95;39.94;97760.03;5053875;28;20468;-74
2022/07/04 09:33:52;;;;;;;5.43;2.20;;;;;;;28.13;39.61;97758.91;5055333;28;20473;-72
2022/07/04 09:36:21;;;;;;;6.20;1.83;;;;;;;28.29;39.25;97757.22;5057921;28;20443;-73
2022/07/04 09:39:23;;;;;;;6.80;1.80;;;;;;;28.50;38.40;97759.03;5055190;28;20474;-74
2022/07/04 09:41:49;;;;;;;5.80;2.13;;;;;;;28.86;38.39;97768.50;5057014;28;20476;-74
2022/07/04 09:44:15;;;;;;;3.93;1.70;;;;;;;29.13;38.58;97768.44;5053871;28;20482;-73
2022/07/04 09:46:40;;;;;;;3.10;1.57;;;;;;;29.32;37.24;97773.44;5059228;28;20433;-74
2022/07/04 09:49:06;;;;;;;4.60;1.90;;;;;;;29.51;37.26;97771.13;5064125;28;20193;-74
2022/07/04 09:51:36;;;;;;;3.50;2.03;;;;;;;29.73;36.09;97769.06;5059402;28;20185;-74
2022/07/04 09:54:31;;;;;;;3.90;2.20;;;;;;;29.84;35.06;97774.50;5069119;28;20236;-74
2022/07/04 09:56:59;;;;;;;6.17;1.70;;;;;;;29.93;35.13;97767.50;5069272;28;20947;-74
2022/07/04 09:59:27;;;;;;;3.33;1.60;;;;;;;30.08;33.75;97774.06;5066270;28;20441;-73
2022/07/04 10:02:06;;;;;;;5.20;2.20;;;;;;;30.24;33.11;97769.53;5059551;28;20577;-74
2022/07/04 10:05:04;;;;;;;1.60;1.30;;;;;;;30.43;32.39;97767.16;5057031;28;20481;-75
2022/07/04 10:07:47;;;;;;;9.60;2.20;;;;;;;30.62;33.01;97764.75;5062525;28;20440;-75
2022/07/04 10:10:25;;;;;;;2.83;1.30;;;;;;;30.76;32.73;97757.72;5061299;28;20417;-75
2022/07/04 10:13:00;;;;;;;5.03;1.57;;;;;;;30.78;31.94;97760.16;5072755;28;20454;-75
2022/07/04 10:15:25;;;;;;;2.07;1.27;;;;;;;30.36;32.25;97769.28;5062727;28;20920;-73
2022/07/04 10:17:51;;;;;;;3.23;1.50;;;;;;;30.54;32.66;97768.81;5062417;28;20471;-74
2022/07/04 10:20:17;;;;;;;3.40;1.43;;;;;;;30.66;32.63;97763.13;5065043;28;20709;-74
2022/07/04 10:22:42;;;;;;;2.03;1.50;;;;;;;30.76;32.37;97768.53;5064834;28;20256;-74
2022/07/04 10:25:09;;;;;;;5.53;1.40;;;;;;;30.86;32.96;97772.34;5058700;28;20215;-74
2022/07/04 10:27:36;;;;;;;4.70;1.50;;;;;;;31.03;32.30;97772.84;5057127;28;20182;-73
2022/07/04 10:30:04;;;;;;;1.80;1.57;;;;;;;31.10;31.81;97770.69;5066297;28;20494;-74
2022/07/04 10:32:30;;;;;;;1.90;1.50;;;;;;;31.21;31.75;97773.41;5054951;28;20413;-74
2022/07/04 10:34:55;;;;;;;4.20;1.67;;;;;;;31.37;31.95;97768.75;5064543;28;20490;-73
2022/07/04 10:37:21;;;;;;;6.33;3.37;;;;;;;31.51;32.33;97767.09;5060395;28;20191;-73
2022/07/04 10:39:47;;;;;;;3.93;3.13;;;;;;;31.65;32.02;97759.19;5055784;28;20209;-74
2022/07/04 10:42:24;;;;;;;3.20;1.80;;;;;;;31.82;32.11;97758.06;5060330;28;20206;-73
2022/07/04 10:44:50;;;;;;;4.70;1.70;;;;;;;31.89;31.08;97760.50;5061322;28;20443;-73
2022/07/04 10:47:30;;;;;;;3.13;1.40;;;;;;;31.97;31.12;97758.00;5061665;28;20800;-73
2022/07/04 10:49:56;;;;;;;9.00;6.63;;;;;;;31.93;30.65;97762.34;5055968;28;20630;-75
2022/07/04 10:52:21;;;;;;;6.10;1.80;;;;;;;31.98;30.80;97764.22;5059880;28;20524;-73
2022/07/04 10:54:47;;;;;;;3.60;1.60;;;;;;;31.97;30.36;97762.59;5060841;28;20190;-73
2022/07/04 10:57:24;;;;;;;7.03;1.90;;;;;;;32.10;31.28;97756.56;5063307;28;20633;-73
2022/07/04 10:59:56;;;;;;;2.57;1.40;;;;;;;31.99;30.71;97761.25;5058181;28;20215;-74
2022/07/04 11:02:25;;;;;;;2.87;1.57;;;;;;;32.15;31.37;97753.00;5065812;28;20556;-73
2022/07/04 11:05:06;;;;;;;4.07;1.60;;;;;;;32.34;31.01;97749.69;5065102;28;20421;-74
2022/07/04 11:07:37;;;;;;;2.67;1.50;;;;;;;32.45;30.22;97748.53;5057750;28;20464;-73
2022/07/04 11:10:21;;;;;;;4.33;1.50;;;;;;;32.50;29.93;97748.50;5061001;28;20471;-73
2022/07/04 11:13:03;;;;;;;2.27;1.60;;;;;;;32.25;29.59;97752.19;5067310;28;20533;-74
2022/07/04 11:15:32;;;;;;;6.10;1.97;;;;;;;32.10;29.80;97745.72;5057757;28;20426;-73
2022/07/04 11:18:04;;;;;;;4.20;1.60;;;;;;;31.96;30.08;97740.13;5063841;28;20432;-74
2022/07/04 11:20:31;;;;;;;2.53;1.60;;;;;;;31.97;29.52;97741.75;5062268;28;20518;-73
2022/07/04 11:23:07;;;;;;;3.50;1.40;;;;;;;31.84;30.41;97739.66;5068451;28;20452;-74
2022/07/04 11:25:33;;;;;;;2.27;1.70;;;;;;;31.58;30.49;97739.72;5063874;28;20844;-74
2022/07/04 11:28:31;;;;;;;3.70;1.60;;;;;;;31.45;30.68;97732.19;5058155;28;20452;-73
2022/07/04 11:31:00;;;;;;;2.20;1.53;;;;;;;31.64;30.67;97722.34;5064424;28;20187;-73
2022/07/04 11:33:28;;;;;;;3.83;1.80;;;;;;;31.84;31.04;97715.25;5061588;28;20475;-74
2022/07/04 11:36:02;;;;;;;2.00;1.50;;;;;;;32.08;31.11;97709.16;5067272;28;20465;-74
2022/07/04 11:39:02;;;;;;;4.83;1.50;;;;;;;32.14;30.71;97711.56;5057722;28;20500;-74
2022/07/04 11:47:19;;;;;;;3.80;1.70;;;;;;;32.45;30.22;97699.72;5065047;28;20456;-73
2022/07/04 11:50:14;;;;;;;7.70;2.10;;;;;;;32.17;30.37;97694.75;5063863;28;20425;-74
2022/07/04 11:52:42;;;;;;;3.80;1.73;;;;;;;32.15;30.17;97698.81;5065678;28;20482;-74
2022/07/04 11:55:14;;;;;;;5.97;1.70;;;;;;;32.07;30.33;97694.78;5073184;28;20528;-73